createdAt,value
2017-09-25T00:02:06.674Z,12.47
2017-09-25T00:04:33.095Z,11.97
2017-09-25T00:06:59.555Z,10.57
2017-09-25T00:09:26.739Z,11.97
2017-09-25T00:11:53.198Z,11.10
2017-09-25T00:14:19.643Z,11.15
2017-09-25T00:16:46.179Z,11.87
2017-09-25T00:19:12.755Z,10.67
2017-09-25T00:21:39.198Z,10.70
2017-09-25T00:24:05.606Z,10.30
2017-09-25T00:26:32.831Z,11.20
2017-09-25T00:28:59.262Z,11.15
2017-09-25T00:31:25.738Z,11.67
2017-09-25T00:33:52.151Z,11.55
2017-09-25T00:36:19.331Z,13.25
2017-09-25T00:38:45.827Z,11.50
2017-09-25T00:41:12.304Z,12.60
2017-09-25T00:43:38.832Z,12.00
2017-09-25T00:46:05.968Z,12.30
2017-09-25T00:48:32.653Z,12.00
2017-09-25T00:50:59.154Z,11.40
2017-09-25T00:56:20.486Z,12.20
2017-09-25T00:58:46.947Z,12.93
2017-09-25T01:01:13.358Z,11.73
2017-09-25T01:03:52.071Z,12.32
2017-09-25T01:06:25.574Z,11.50
2017-09-25T01:08:52.155Z,11.20
2017-09-25T01:11:18.712Z,11.82
2017-09-25T01:13:45.896Z,10.37
2017-09-25T01:16:12.370Z,10.07
2017-09-25T01:18:38.818Z,12.03
2017-09-25T01:21:05.982Z,10.27
2017-09-25T01:23:33.196Z,12.05
2017-09-25T01:25:59.647Z,11.57
2017-09-25T01:28:26.108Z,12.55
2017-09-25T01:30:52.635Z,11.25
2017-09-25T01:33:19.819Z,12.60
2017-09-25T01:35:46.419Z,11.88
2017-09-25T01:38:13.586Z,11.85
2017-09-25T01:40:40.219Z,11.88
2017-09-25T01:43:06.648Z,11.90
2017-09-25T01:45:33.091Z,11.60
2017-09-25T01:47:59.579Z,10.90
2017-09-25T01:50:26.079Z,12.10
2017-09-25T01:52:52.564Z,10.70
2017-09-25T01:55:19.733Z,11.90
2017-09-25T01:57:46.203Z,11.80
2017-09-25T02:00:12.638Z,12.70
2017-09-25T02:02:39.047Z,12.65
2017-09-25T02:05:05.512Z,12.15
2017-09-25T02:07:31.976Z,12.27
2017-09-25T02:09:58.548Z,12.77
2017-09-25T02:12:24.976Z,12.07
2017-09-25T02:14:51.420Z,12.85
2017-09-25T02:17:17.883Z,13.13
2017-09-25T02:19:44.355Z,11.35
2017-09-25T02:22:11.547Z,11.23
2017-09-25T02:24:38.131Z,12.13
2017-09-25T02:27:05.318Z,11.93
2017-09-25T02:29:31.775Z,11.82
2017-09-25T02:31:58.218Z,11.80
2017-09-25T02:34:24.679Z,11.30
2017-09-25T02:36:51.863Z,13.00
2017-09-25T02:39:18.343Z,10.77
2017-09-25T02:41:44.791Z,11.07
2017-09-25T02:44:11.199Z,11.63
2017-09-25T02:46:37.653Z,11.68
2017-09-25T02:49:04.134Z,11.30
2017-09-25T02:51:30.591Z,11.77
2017-09-25T02:53:57.039Z,11.80
2017-09-25T02:56:23.447Z,12.37
2017-09-25T02:58:49.927Z,12.10
2017-09-25T03:01:17.094Z,12.05
2017-09-25T03:03:44.343Z,11.12
2017-09-25T03:06:11.516Z,11.07
2017-09-25T03:08:38.113Z,12.07
2017-09-25T03:11:04.652Z,12.43
2017-09-25T03:13:31.818Z,11.75
2017-09-25T03:15:59.010Z,11.85
2017-09-25T03:18:25.463Z,11.70
2017-09-25T03:20:51.946Z,11.23
2017-09-25T03:23:18.387Z,10.60
2017-09-25T03:25:44.826Z,11.10
2017-09-25T03:28:11.293Z,11.73
2017-09-25T03:30:37.719Z,11.07
2017-09-25T03:33:04.175Z,11.98
2017-09-25T03:35:30.764Z,11.82
2017-09-25T03:37:57.239Z,11.60
2017-09-25T03:40:24.452Z,11.63
2017-09-25T03:42:50.882Z,10.80
2017-09-25T03:45:17.339Z,10.40
2017-09-25T03:47:43.813Z,9.90
2017-09-25T03:50:10.971Z,10.85
2017-09-25T03:52:38.324Z,9.38
2017-09-25T03:55:05.511Z,10.60
2017-09-25T03:57:32.071Z,9.98
2017-09-25T03:59:58.502Z,10.45
2017-09-25T04:02:24.939Z,10.05
2017-09-25T04:04:51.362Z,10.98
2017-09-25T04:07:17.906Z,11.68
2017-09-25T04:09:44.376Z,11.75
2017-09-25T04:12:11.600Z,10.85
2017-09-25T04:14:38.041Z,10.60
2017-09-25T04:17:05.242Z,11.68
2017-09-25T04:19:31.686Z,11.73
2017-09-25T04:21:58.205Z,11.40
2017-09-25T04:24:24.619Z,12.88
2017-09-25T04:26:51.083Z,12.30
2017-09-25T04:29:17.583Z,12.90
2017-09-25T04:31:44.042Z,11.02
2017-09-25T04:34:10.651Z,11.43
2017-09-25T04:36:37.110Z,10.90
2017-09-25T04:39:03.548Z,10.98
2017-09-25T04:41:30.101Z,11.43
2017-09-25T04:43:56.562Z,11.63
2017-09-25T04:46:23.209Z,11.80
2017-09-25T04:48:49.699Z,12.77
2017-09-25T04:51:16.140Z,14.30
2017-09-25T04:53:42.793Z,13.20
2017-09-25T04:56:09.196Z,14.70
2017-09-25T04:58:35.636Z,14.93
2017-09-25T05:01:02.068Z,13.05
2017-09-25T05:03:28.523Z,12.50
2017-09-25T05:05:55.011Z,13.10
2017-09-25T05:08:21.450Z,15.18
2017-09-25T05:10:47.903Z,12.40
2017-09-25T05:13:14.337Z,11.50
2017-09-25T05:15:40.821Z,12.37
2017-09-25T05:18:07.272Z,10.98
2017-09-25T05:20:33.707Z,12.07
2017-09-25T05:23:00.222Z,11.80
2017-09-25T05:25:26.651Z,11.18
2017-09-25T05:27:53.116Z,11.10
2017-09-25T05:30:19.559Z,12.05
2017-09-25T05:32:45.995Z,10.52
2017-09-25T05:35:12.617Z,11.00
2017-09-25T05:37:39.065Z,9.75
2017-09-25T05:40:05.495Z,9.50
2017-09-25T05:42:32.111Z,9.57
2017-09-25T05:44:58.644Z,9.55
2017-09-25T05:47:25.094Z,8.33
2017-09-25T05:49:51.565Z,8.10
2017-09-25T05:52:18.030Z,8.80
2017-09-25T05:54:44.474Z,8.60
2017-09-25T05:57:10.930Z,8.37
2017-09-25T05:59:37.344Z,9.17
2017-09-25T06:02:03.771Z,8.53
2017-09-25T06:04:30.271Z,8.40
2017-09-25T06:06:57.465Z,8.23
2017-09-25T06:09:23.920Z,8.67
2017-09-25T06:11:50.370Z,8.00
2017-09-25T06:14:16.811Z,7.80
2017-09-25T06:16:43.223Z,9.77
2017-09-25T06:19:09.730Z,9.87
2017-09-25T06:21:36.134Z,10.23
2017-09-25T06:24:03.294Z,10.03
2017-09-25T06:26:29.759Z,10.20
2017-09-25T06:28:56.178Z,10.47
2017-09-25T06:31:22.623Z,9.37
2017-09-25T06:33:49.033Z,9.77
2017-09-25T06:36:15.527Z,9.67
2017-09-25T06:38:41.966Z,9.60
2017-09-25T06:41:08.437Z,9.30
2017-09-25T06:43:34.884Z,9.20
2017-09-25T06:46:01.297Z,9.27
2017-09-25T06:48:27.878Z,9.20
2017-09-25T06:50:54.379Z,9.03
2017-09-25T06:53:20.836Z,9.90
2017-09-25T06:55:47.314Z,9.40
2017-09-25T06:58:14.607Z,9.40
2017-09-25T07:00:41.059Z,9.43
2017-09-25T07:03:07.490Z,9.90
2017-09-25T07:05:33.967Z,9.50
2017-09-25T07:08:01.147Z,10.27
2017-09-25T07:10:27.604Z,8.93
2017-09-25T07:12:54.059Z,11.60
2017-09-25T07:15:20.499Z,10.70
2017-09-25T07:17:47.004Z,11.43
2017-09-25T07:20:13.440Z,9.80
2017-09-25T07:22:40.145Z,10.20
2017-09-25T07:25:06.586Z,9.47
2017-09-25T07:27:33.027Z,9.50
2017-09-25T07:29:59.470Z,9.23
2017-09-25T07:32:25.889Z,9.77
2017-09-25T07:34:52.311Z,9.50
2017-09-25T07:37:18.757Z,9.50
2017-09-25T07:39:45.190Z,9.63
2017-09-25T07:42:11.626Z,10.50
2017-09-25T07:44:38.157Z,10.57
2017-09-25T07:47:04.635Z,10.70
2017-09-25T07:49:31.071Z,10.97
2017-09-25T07:51:57.531Z,10.23
2017-09-25T07:54:23.988Z,11.13
2017-09-25T07:56:50.480Z,9.90
2017-09-25T07:59:17.680Z,9.33
2017-09-25T08:01:44.094Z,11.07
2017-09-25T08:04:10.535Z,10.53
2017-09-25T08:06:37.882Z,10.00
2017-09-25T08:09:04.467Z,9.80
2017-09-25T08:11:30.922Z,8.73
2017-09-25T08:13:58.119Z,7.30
2017-09-25T08:16:24.672Z,7.57
2017-09-25T08:18:51.166Z,7.97
2017-09-25T08:21:17.644Z,7.60
2017-09-25T08:23:44.192Z,7.30
2017-09-25T08:26:10.787Z,7.47
2017-09-25T08:28:37.243Z,6.40
2017-09-25T08:31:03.671Z,7.17
2017-09-25T08:33:30.320Z,5.60
2017-09-25T08:35:56.750Z,5.80
2017-09-25T08:38:23.203Z,6.90
2017-09-25T08:40:49.625Z,6.60
2017-09-25T08:43:16.091Z,6.47
2017-09-25T08:45:42.520Z,6.20
2017-09-25T08:48:09.688Z,5.60
2017-09-25T08:50:36.275Z,6.43
2017-09-25T08:53:02.714Z,5.70
2017-09-25T08:55:29.173Z,5.90
2017-09-25T08:57:56.363Z,5.90
2017-09-25T09:00:22.811Z,5.10
2017-09-25T09:02:49.264Z,5.00
2017-09-25T09:05:15.738Z,5.07
2017-09-25T09:07:42.327Z,5.77
2017-09-25T09:10:08.779Z,5.10
2017-09-25T09:12:36.048Z,4.30
2017-09-25T09:15:02.500Z,4.90
2017-09-25T09:17:29.097Z,4.10
2017-09-25T09:19:56.314Z,4.63
2017-09-25T09:22:22.804Z,4.60
2017-09-25T09:24:49.218Z,4.23
2017-09-25T09:27:16.432Z,5.00
2017-09-25T09:29:42.898Z,5.20
2017-09-25T09:32:10.104Z,5.57
2017-09-25T09:34:36.583Z,6.27
2017-09-25T09:37:03.771Z,5.70
2017-09-25T09:39:30.252Z,5.10
2017-09-25T09:41:56.698Z,4.60
2017-09-25T09:44:23.863Z,5.47
2017-09-25T09:46:51.074Z,5.37
2017-09-25T09:49:17.538Z,6.07
2017-09-25T09:51:44.802Z,5.23
2017-09-25T09:54:12.006Z,4.90
2017-09-25T09:56:38.498Z,5.33
2017-09-25T09:59:04.907Z,5.73
2017-09-25T10:01:32.118Z,4.80
2017-09-25T10:03:58.639Z,5.07
2017-09-25T10:06:25.122Z,5.47
2017-09-25T10:08:52.287Z,5.73
2017-09-25T10:11:19.442Z,5.73
2017-09-25T10:13:45.950Z,6.00
2017-09-25T10:16:12.483Z,5.67
2017-09-25T10:18:38.950Z,6.17
2017-09-25T10:21:05.387Z,6.87
2017-09-25T10:23:31.844Z,6.70
2017-09-25T10:25:58.450Z,7.20
2017-09-25T10:28:24.931Z,6.53
2017-09-25T10:33:40.579Z,7.00
2017-09-25T10:36:07.019Z,8.13
2017-09-25T10:38:33.486Z,6.60
2017-09-25T10:40:59.951Z,6.00
2017-09-25T10:43:26.395Z,6.40
2017-09-25T10:45:53.603Z,6.60
2017-09-25T10:48:20.062Z,7.33
2017-09-25T10:50:46.521Z,7.00
2017-09-25T10:53:13.724Z,7.00
2017-09-25T10:55:40.187Z,7.30
2017-09-25T10:58:07.358Z,7.50
2017-09-25T11:00:34.575Z,7.23
2017-09-25T11:03:01.003Z,7.50
2017-09-25T11:05:27.467Z,7.90
2017-09-25T11:07:54.648Z,6.87
2017-09-25T11:10:21.127Z,6.90
2017-09-25T11:12:47.541Z,7.50
2017-09-25T11:15:14.000Z,7.03
2017-09-25T11:17:41.195Z,6.57
2017-09-25T11:20:07.634Z,7.17
2017-09-25T11:22:34.057Z,6.13
2017-09-25T11:25:00.651Z,6.10
2017-09-25T11:27:27.112Z,6.60
2017-09-25T11:29:53.535Z,7.13
2017-09-25T11:32:20.839Z,6.90
2017-09-25T11:34:47.287Z,5.83
2017-09-25T11:37:13.723Z,6.97
2017-09-25T11:39:40.235Z,6.20
2017-09-25T11:42:06.684Z,6.93
2017-09-25T11:44:33.091Z,6.10
2017-09-25T11:46:59.549Z,6.97
2017-09-25T11:49:26.008Z,6.97
2017-09-25T11:51:53.248Z,7.33
2017-09-25T11:54:19.686Z,5.90
2017-09-25T11:56:46.131Z,6.60
2017-09-25T11:59:13.302Z,6.43
2017-09-25T12:01:39.901Z,7.90
2017-09-25T12:04:06.367Z,7.30
2017-09-25T12:06:32.843Z,7.10
2017-09-25T12:08:59.285Z,6.80
2017-09-25T12:11:25.753Z,6.60
2017-09-25T12:13:52.949Z,7.20
2017-09-25T12:16:19.397Z,7.30
2017-09-25T12:18:45.871Z,6.80
2017-09-25T12:21:13.067Z,6.93
2017-09-25T12:23:39.495Z,7.70
2017-09-25T12:26:05.995Z,7.03
2017-09-25T12:28:33.179Z,7.80
2017-09-25T12:30:59.611Z,7.67
2017-09-25T12:33:26.054Z,7.50
2017-09-25T12:35:52.531Z,8.20
2017-09-25T12:38:19.716Z,8.80
2017-09-25T12:40:46.212Z,7.40
2017-09-25T12:43:13.412Z,8.50
2017-09-25T12:45:40.070Z,8.53
2017-09-25T12:48:06.586Z,7.57
2017-09-25T12:50:33.027Z,7.93
2017-09-25T12:52:59.450Z,8.50
2017-09-25T12:55:25.931Z,8.13
2017-09-25T12:57:53.112Z,7.20
2017-09-25T13:00:19.573Z,6.80
2017-09-25T13:02:45.993Z,6.53
2017-09-25T13:05:12.482Z,7.10
2017-09-25T13:07:39.656Z,6.70
2017-09-25T13:10:06.118Z,6.30
2017-09-25T13:12:32.552Z,6.67
2017-09-25T13:14:59.031Z,6.30
2017-09-25T13:17:26.284Z,6.70
2017-09-25T13:19:53.466Z,6.10
2017-09-25T13:22:19.929Z,7.07
2017-09-25T13:24:46.347Z,6.90
2017-09-25T13:27:12.763Z,7.20
2017-09-25T13:29:39.219Z,6.93
2017-09-25T13:32:05.687Z,7.73
2017-09-25T13:34:32.115Z,8.00
2017-09-25T13:36:58.601Z,8.43
2017-09-25T13:39:25.071Z,7.90
2017-09-25T13:41:51.543Z,9.10
2017-09-25T13:44:18.714Z,7.97
2017-09-25T13:46:45.168Z,7.47
2017-09-25T13:49:11.662Z,8.30
2017-09-25T13:51:38.852Z,8.20
2017-09-25T13:54:05.271Z,10.03
2017-09-25T13:56:31.752Z,8.30
2017-09-25T14:04:02.581Z,9.57
2017-09-25T14:06:29.018Z,9.20
2017-09-25T14:08:55.467Z,11.20
2017-09-25T14:11:21.935Z,8.60
2017-09-25T14:13:49.154Z,10.23
2017-09-25T14:16:15.582Z,9.57
2017-09-25T14:18:42.046Z,7.77
2017-09-25T14:22:02.898Z,7.33
2017-09-25T14:24:29.432Z,8.27
2017-09-25T14:26:55.864Z,8.03
2017-09-25T14:29:22.403Z,8.17
2017-09-25T14:31:48.856Z,7.60
2017-09-25T14:34:15.327Z,7.90
2017-09-25T14:36:42.595Z,8.83
2017-09-25T14:39:09.042Z,9.70
2017-09-25T14:41:35.483Z,9.63
2017-09-25T14:44:01.937Z,8.70
2017-09-25T14:46:28.601Z,8.30
2017-09-25T14:48:55.057Z,8.33
2017-09-25T14:51:22.231Z,9.83
2017-09-25T14:53:48.706Z,9.50
2017-09-25T14:56:15.178Z,9.50
2017-09-25T14:58:41.896Z,10.43
2017-09-25T15:01:08.492Z,12.20
2017-09-25T15:03:35.022Z,12.17
2017-09-25T15:06:01.455Z,11.77
2017-09-25T15:08:27.937Z,12.30
2017-09-25T15:10:55.099Z,12.40
2017-09-25T15:13:22.299Z,12.80
2017-09-25T15:15:48.762Z,11.40
2017-09-25T15:18:15.212Z,11.63
2017-09-25T15:20:42.463Z,11.10
2017-09-25T15:23:09.665Z,11.10
2017-09-25T15:25:36.191Z,10.87
2017-09-25T15:28:02.691Z,10.90
2017-09-25T15:30:29.853Z,10.10
2017-09-25T15:32:56.300Z,11.17
2017-09-25T15:35:22.755Z,11.30
2017-09-25T15:37:49.203Z,11.60
2017-09-25T15:40:15.631Z,9.33
2017-09-25T15:42:42.068Z,10.33
2017-09-25T15:45:08.518Z,10.87
2017-09-25T15:47:35.020Z,11.20
2017-09-25T15:50:01.467Z,12.57
2017-09-25T15:52:28.073Z,12.10
2017-09-25T15:54:54.547Z,13.13
2017-09-25T15:57:21.027Z,11.37
2017-09-25T15:59:47.483Z,12.37
2017-09-25T16:02:13.934Z,11.93
2017-09-25T16:04:40.438Z,11.07
2017-09-25T16:07:06.948Z,12.10
2017-09-25T16:09:33.417Z,11.80
2017-09-25T16:11:59.856Z,12.13
2017-09-25T16:14:26.282Z,11.87
2017-09-25T16:16:52.745Z,11.73
2017-09-25T16:19:19.247Z,11.33
2017-09-25T16:21:45.699Z,12.67
2017-09-25T16:24:12.231Z,12.83
2017-09-25T16:26:38.654Z,13.23
2017-09-25T16:29:05.111Z,13.63
2017-09-25T16:31:31.554Z,12.87
2017-09-25T16:33:58.231Z,12.57
2017-09-25T16:36:24.718Z,12.63
2017-09-25T16:38:52.717Z,12.30
2017-09-25T16:41:19.963Z,12.67
2017-09-25T16:43:47.151Z,12.43
2017-09-25T16:46:13.627Z,12.13
2017-09-25T16:48:40.130Z,11.87
2017-09-25T16:51:06.640Z,11.83
2017-09-25T16:53:33.062Z,11.83
2017-09-25T16:55:59.562Z,13.03
2017-09-25T16:58:27.527Z,14.03
2017-09-25T17:00:54.315Z,13.70
2017-09-25T17:03:20.801Z,13.20
2017-09-25T17:05:47.248Z,14.20
2017-09-25T17:08:14.536Z,13.57
2017-09-25T17:10:40.989Z,13.37
2017-09-25T17:13:07.466Z,13.13
2017-09-25T17:15:34.787Z,12.97
2017-09-25T17:18:01.322Z,13.80
2017-09-25T17:20:28.711Z,14.80
2017-09-25T17:22:55.453Z,13.80
2017-09-25T17:25:22.086Z,14.50
2017-09-25T17:27:48.963Z,13.63
2017-09-25T17:30:15.912Z,14.70
2017-09-25T17:32:42.749Z,14.93
2017-09-25T17:35:09.595Z,15.80
2017-09-25T17:37:36.639Z,17.90
2017-09-25T17:42:53.059Z,16.27
2017-09-25T17:45:20.311Z,14.70
2017-09-25T17:47:46.807Z,14.63
2017-09-25T17:50:14.076Z,14.80
2017-09-25T17:52:40.616Z,15.50
2017-09-25T17:55:07.269Z,17.17
2017-09-25T17:57:33.740Z,16.13
2017-09-25T18:00:00.324Z,15.90
2017-09-25T18:02:26.854Z,15.47
2017-09-25T18:04:53.353Z,14.50
2017-09-25T18:07:19.775Z,16.83
2017-09-25T18:09:46.423Z,16.50
2017-09-25T18:12:13.016Z,18.40
2017-09-25T18:14:39.507Z,18.27
2017-09-25T18:17:05.985Z,17.73
2017-09-25T18:19:32.741Z,17.83
2017-09-25T18:21:59.205Z,18.43
2017-09-25T18:24:25.820Z,16.67
2017-09-25T18:26:52.313Z,19.07
2017-09-25T18:29:18.847Z,19.17
2017-09-25T18:31:45.441Z,16.93
2017-09-25T18:34:11.905Z,17.87
2017-09-25T18:36:39.102Z,18.20
2017-09-25T18:39:05.599Z,16.90
2017-09-25T18:41:32.195Z,18.90
2017-09-25T18:43:59.661Z,20.17
2017-09-25T18:46:26.895Z,16.83
2017-09-25T18:48:53.367Z,18.70
2017-09-25T18:51:20.661Z,18.73
2017-09-25T18:53:47.130Z,20.50
2017-09-25T18:56:14.431Z,20.60
2017-09-25T18:58:40.905Z,19.80
2017-09-25T19:01:07.394Z,19.60
2017-09-25T19:03:33.854Z,18.63
2017-09-25T19:06:00.371Z,20.17
2017-09-25T19:08:26.852Z,20.97
2017-09-25T19:10:53.327Z,21.53
2017-09-25T19:13:19.870Z,18.73
2017-09-25T19:15:46.383Z,19.93
2017-09-25T19:18:12.913Z,20.20
2017-09-25T19:20:40.105Z,22.37
2017-09-25T19:23:06.537Z,22.97
2017-09-25T19:25:33.085Z,23.87
2017-09-25T19:27:59.522Z,24.60
2017-09-25T19:30:25.994Z,23.70
2017-09-25T19:32:53.202Z,23.50
2017-09-25T19:35:19.699Z,23.40
2017-09-25T19:37:46.162Z,36.00
2017-09-25T19:40:12.660Z,27.60
2017-09-25T19:42:39.178Z,25.70
2017-09-25T19:45:06.419Z,24.00
2017-09-25T19:47:34.464Z,25.70
2017-09-25T19:50:02.770Z,25.90
2017-09-25T19:52:29.995Z,25.13
2017-09-25T19:54:56.518Z,25.33
2017-09-25T20:00:21.300Z,22.50
2017-09-25T20:02:47.781Z,24.20
2017-09-25T20:05:14.309Z,23.80
2017-09-25T20:07:40.853Z,22.77
2017-09-25T20:10:07.324Z,22.40
2017-09-25T20:12:33.813Z,21.00
2017-09-25T20:15:02.332Z,16.87
2017-09-25T20:17:49.478Z,17.43
2017-09-25T20:20:15.962Z,17.50
2017-09-25T20:22:42.443Z,20.13
2017-09-25T20:25:08.905Z,19.70
2017-09-25T20:27:35.392Z,17.90
2017-09-25T20:30:01.865Z,18.07
2017-09-25T20:32:28.486Z,16.67
2017-09-25T20:34:54.927Z,16.13
2017-09-25T20:37:21.361Z,16.60
2017-09-25T20:39:47.836Z,15.20
2017-09-25T20:42:14.288Z,15.83
2017-09-25T20:44:41.504Z,16.60
2017-09-25T20:47:07.967Z,15.90
2017-09-25T20:49:35.220Z,17.70
2017-09-25T20:52:02.429Z,17.20
2017-09-25T20:54:28.922Z,17.47
2017-09-25T20:56:55.379Z,18.03
2017-09-25T20:59:21.819Z,16.07
2017-09-25T21:01:48.359Z,16.43
2017-09-25T21:04:15.044Z,16.30
2017-09-25T21:06:42.271Z,21.63
2017-09-25T21:09:08.740Z,18.40
2017-09-25T21:11:35.220Z,17.73
2017-09-25T21:14:01.683Z,16.60
2017-09-25T21:16:29.004Z,16.97
2017-09-25T21:18:55.467Z,16.40
2017-09-25T21:21:21.968Z,16.80
2017-09-25T21:23:48.481Z,16.67
2017-09-25T21:29:13.273Z,18.80
2017-09-25T21:31:39.757Z,17.77
2017-09-25T21:34:06.236Z,17.33
2017-09-25T21:36:37.034Z,15.30
2017-09-25T21:39:03.557Z,15.90
2017-09-25T21:41:30.000Z,16.50
2017-09-25T21:43:56.490Z,17.50
2017-09-25T21:46:22.961Z,16.20
2017-09-25T21:48:49.446Z,17.60
2017-09-25T21:51:15.910Z,17.13
2017-09-25T21:53:42.363Z,17.80
2017-09-25T21:56:09.102Z,16.30
2017-09-25T21:58:35.539Z,18.20
2017-09-25T22:01:02.034Z,17.87
2017-09-25T22:03:28.659Z,16.50
2017-09-25T22:05:55.130Z,16.97
2017-09-25T22:08:21.598Z,16.27
2017-09-25T22:10:48.047Z,19.20
2017-09-25T22:13:15.258Z,18.07
2017-09-25T22:15:41.708Z,18.37
2017-09-25T22:18:08.274Z,21.30
2017-09-25T22:20:34.786Z,21.20
2017-09-25T22:23:01.248Z,24.30
2017-09-25T22:25:27.738Z,20.80
2017-09-25T22:27:54.191Z,24.10
2017-09-25T22:30:21.387Z,20.23
2017-09-25T22:32:47.867Z,19.77
2017-09-25T22:35:14.327Z,21.73
2017-09-25T22:37:40.811Z,21.47
2017-09-25T22:40:07.262Z,22.60
2017-09-25T22:42:35.571Z,23.00
2017-09-25T22:45:02.018Z,23.87
2017-09-25T22:47:28.487Z,23.73
2017-09-25T22:49:54.991Z,22.53
2017-09-25T22:52:21.468Z,25.33
2017-09-25T22:54:47.959Z,24.77
2017-09-25T22:57:14.611Z,23.00
2017-09-25T22:59:41.124Z,24.47
2017-09-25T23:02:07.570Z,22.30
2017-09-25T23:04:40.150Z,21.20
2017-09-25T23:07:06.644Z,24.70
2017-09-25T23:09:36.814Z,25.10
2017-09-25T23:12:03.234Z,23.67
2017-09-25T23:14:33.564Z,25.77
2017-09-25T23:17:00.002Z,24.93
2017-09-25T23:19:26.431Z,28.03
2017-09-25T23:21:52.895Z,27.67
2017-09-25T23:24:19.327Z,25.20
2017-09-25T23:26:45.810Z,24.50
2017-09-25T23:29:12.255Z,24.27
2017-09-25T23:31:40.663Z,23.87
2017-09-25T23:34:07.908Z,25.27
2017-09-25T23:36:34.334Z,25.43
2017-09-25T23:39:00.822Z,26.70
2017-09-25T23:41:28.016Z,24.60
2017-09-25T23:43:54.509Z,23.57
2017-09-25T23:46:20.967Z,26.50
2017-09-25T23:48:47.488Z,25.73
2017-09-25T23:51:13.924Z,27.60
2017-09-25T23:53:40.363Z,24.13
2017-09-25T23:56:06.811Z,27.70
2017-09-25T23:58:33.275Z,26.83
